Time;durP1;ratioP1;P1;durP2;ratioP2;P2;SDS_P1;SDS_P2;PMS_P1;PMS_P2;Temp;Humidity;BMP_temperature;BMP_pressure;BME280_temperature;BME280_humidity;BME280_pressure;Samples;Min_cycle;Max_cycle;Signal;HPM_P1;HPM_P2
2023/01/06 00:01:08;;;;;;;8.75;5.50;;;;;;;11.11;81.27;101754.00;5031766;28;20048;-66
2023/01/06 00:03:34;;;;;;;9.13;5.35;;;;;;;11.10;81.03;101751.47;5031865;28;20037;-65
2023/01/06 00:06:01;;;;;;;10.23;5.30;;;;;;;11.11;81.24;101744.81;5031944;28;20038;-66
2023/01/06 00:08:26;;;;;;;11.80;5.50;;;;;;;11.11;81.10;101742.03;5030806;28;20025;-66
2023/01/06 00:10:57;;;;;;;7.45;5.50;;;;;;;11.10;80.78;101743.97;5022883;28;20088;-65
2023/01/06 00:13:23;;;;;;;8.65;5.05;;;;;;;11.11;80.80;101742.88;5028555;28;20527;-65
2023/01/06 00:15:48;;;;;;;9.77;5.70;;;;;;;11.11;80.70;101737.31;5031099;28;20034;-65
2023/01/06 00:18:13;;;;;;;8.13;4.95;;;;;;;11.08;80.34;101726.66;5031815;28;20017;-66
2023/01/06 00:20:39;;;;;;;8.82;4.55;;;;;;;11.01;80.43;101721.22;5031569;28;20053;-66
2023/01/06 00:23:04;;;;;;;8.05;4.70;;;;;;;11.01;80.36;101734.28;5030008;28;20064;-66
2023/01/06 00:25:29;;;;;;;8.15;4.38;;;;;;;11.00;80.81;101725.09;5031902;28;20079;-66
2023/01/06 00:27:55;;;;;;;8.32;4.45;;;;;;;11.03;80.83;101729.31;5029657;28;20393;-65
2023/01/06 00:30:20;;;;;;;8.43;4.25;;;;;;;11.01;80.00;101724.00;5029604;28;20068;-65
2023/01/06 00:32:46;;;;;;;6.50;3.83;;;;;;;11.04;79.92;101725.44;5031628;28;20056;-66
2023/01/06 00:35:11;;;;;;;5.60;3.40;;;;;;;11.05;80.07;101728.00;5031087;28;20381;-65
2023/01/06 00:37:36;;;;;;;6.45;3.10;;;;;;;11.06;79.82;101718.59;5029870;28;20040;-65
2023/01/06 00:40:01;;;;;;;7.32;3.10;;;;;;;11.06;79.81;101724.13;5031244;28;20044;-65
2023/01/06 00:42:27;;;;;;;6.88;3.85;;;;;;;11.09;79.67;101724.75;5031286;28;20038;-66
2023/01/06 00:44:52;;;;;;;4.50;3.15;;;;;;;11.10;79.86;101718.97;5022018;28;20034;-65
2023/01/06 00:47:18;;;;;;;6.13;3.38;;;;;;;11.09;79.75;101722.00;5030718;28;20025;-66
2023/01/06 00:49:43;;;;;;;4.70;3.05;;;;;;;11.08;79.69;101715.56;5031487;28;20029;-66
2023/01/06 00:52:09;;;;;;;5.18;3.03;;;;;;;11.11;79.64;101719.81;5030048;28;20071;-66
2023/01/06 00:54:35;;;;;;;13.07;3.97;;;;;;;11.10;79.51;101716.19;5031422;28;20041;-66
2023/01/06 00:57:02;;;;;;;7.25;3.65;;;;;;;11.11;79.42;101719.81;5030870;28;20087;-66
2023/01/06 00:59:27;;;;;;;5.30;3.28;;;;;;;11.12;79.25;101722.38;5030275;28;20025;-65
2023/01/06 01:01:56;;;;;;;4.57;3.20;;;;;;;11.11;79.57;101717.03;5029593;28;20033;-65
2023/01/06 01:04:23;;;;;;;4.63;3.03;;;;;;;11.11;79.25;101723.44;5029589;28;20033;-65
2023/01/06 01:06:50;;;;;;;8.43;3.08;;;;;;;11.07;79.13;101720.28;5031001;28;20116;-66
2023/01/06 01:09:20;;;;;;;7.57;3.40;;;;;;;11.07;79.19;101717.50;5031598;28;20056;-66
2023/01/06 01:14:30;;;;;;;6.72;3.35;;;;;;;11.02;79.42;101703.47;5011006;28;20104;-65
2023/01/06 01:16:55;;;;;;;9.05;3.50;;;;;;;11.02;79.32;101702.63;5013649;28;20025;-66
2023/01/06 01:19:21;;;;;;;6.60;3.40;;;;;;;11.03;79.19;101707.94;5029281;28;20503;-66
2023/01/06 01:21:46;;;;;;;5.95;2.75;;;;;;;11.05;79.17;101708.56;5029609;28;20025;-65
2023/01/06 01:24:12;;;;;;;7.05;3.00;;;;;;;11.05;79.00;101702.16;5031331;28;20034;-66
2023/01/06 01:26:38;;;;;;;8.73;2.90;;;;;;;11.07;78.92;101711.94;5030556;28;20025;-65
2023/01/06 01:29:04;;;;;;;4.85;2.90;;;;;;;11.06;78.84;101701.91;5030419;28;20036;-66
2023/01/06 01:31:30;;;;;;;7.65;2.60;;;;;;;11.09;78.72;101702.53;5031403;28;20675;-66
2023/01/06 01:33:55;;;;;;;5.93;3.63;;;;;;;11.05;78.78;101694.66;5028025;28;20041;-65
2023/01/06 01:36:21;;;;;;;5.95;2.28;;;;;;;11.06;78.37;101701.91;5030181;28;20026;-65
2023/01/06 01:38:46;;;;;;;6.97;3.15;;;;;;;11.04;78.77;101700.44;5030574;28;20033;-65
2023/01/06 01:41:18;;;;;;;4.18;2.33;;;;;;;11.04;78.63;101692.97;5032820;28;20021;-65
2023/01/06 01:43:49;;;;;;;5.65;2.65;;;;;;;11.00;78.33;101688.97;5034679;28;20034;-66
2023/01/06 01:46:38;;;;;;;4.60;2.00;;;;;;;11.03;78.62;101682.94;5033431;28;20043;-66
2023/01/06 01:49:10;;;;;;;5.80;1.88;;;;;;;11.03;78.19;101679.31;5033916;28;20026;-66
2023/01/06 01:51:40;;;;;;;6.60;2.28;;;;;;;11.01;78.12;101671.22;5032362;28;20037;-65
2023/01/06 01:54:13;;;;;;;4.30;2.00;;;;;;;10.99;77.96;101675.31;5033803;28;20026;-66
2023/01/06 01:56:43;;;;;;;3.80;1.83;;;;;;;10.99;77.80;101665.03;5034018;28;20028;-66
2023/01/06 01:59:15;;;;;;;8.02;2.10;;;;;;;10.98;77.43;101660.56;5034377;28;20014;-66
2023/01/06 02:01:40;;;;;;;4.18;1.90;;;;;;;10.99;77.38;101662.25;5033551;28;20435;-66
2023/01/06 02:04:07;;;;;;;3.17;1.65;;;;;;;10.98;77.38;101665.28;5034365;28;20083;-66
2023/01/06 02:06:32;;;;;;;3.75;2.20;;;;;;;10.97;77.73;101658.88;5033337;28;20060;-65
2023/01/06 02:09:04;;;;;;;4.45;1.77;;;;;;;10.99;77.25;101665.03;5031043;28;20103;-66
2023/01/06 02:11:33;;;;;;;4.28;1.92;;;;;;;10.96;77.17;101657.16;5034216;28;20087;-66
2023/01/06 02:14:22;;;;;;;5.13;1.77;;;;;;;11.04;77.52;101667.97;5033723;28;20036;-65
2023/01/06 02:17:03;;;;;;;4.78;1.55;;;;;;;11.03;77.29;101660.72;5034328;28;20021;-66
2023/01/06 02:20:02;;;;;;;5.78;1.92;;;;;;;11.07;77.38;101659.16;5034000;28;20025;-66
2023/01/06 02:22:39;;;;;;;4.90;1.70;;;;;;;10.98;76.57;101665.28;5030385;28;20040;-65
2023/01/06 02:25:16;;;;;;;2.47;1.67;;;;;;;11.06;76.96;101656.63;5032325;28;20112;-66
2023/01/06 02:28:17;;;;;;;5.90;1.40;;;;;;;11.05;76.61;101661.34;5033258;28;20392;-66
2023/01/06 02:31:00;;;;;;;3.47;1.75;;;;;;;11.07;76.79;101647.19;5032870;28;20060;-66
2023/01/06 02:33:38;;;;;;;5.32;1.25;;;;;;;11.04;76.35;101640.19;5033822;28;20080;-66
2023/01/06 02:36:46;;;;;;;4.82;1.67;;;;;;;11.03;76.17;101630.16;5032755;28;20038;-66
2023/01/06 02:39:19;;;;;;;4.15;1.42;;;;;;;10.97;75.88;101619.16;5032363;28;20099;-66
2023/01/06 02:42:17;;;;;;;5.63;1.33;;;;;;;11.01;76.55;101628.72;5033423;28;20496;-66
2023/01/06 02:44:58;;;;;;;2.75;1.40;;;;;;;10.98;75.80;101615.28;5031994;28;20417;-66
2023/01/06 02:47:40;;;;;;;3.28;1.55;;;;;;;11.01;75.53;101614.81;5033424;28;20029;-66
2023/01/06 02:50:09;;;;;;;7.53;1.77;;;;;;;11.00;75.72;101607.53;5030810;28;20041;-66
2023/01/06 02:52:51;;;;;;;3.47;1.30;;;;;;;11.04;76.24;101608.75;5031225;28;20045;-66
2023/01/06 02:55:42;;;;;;;4.63;1.50;;;;;;;11.03;75.26;101607.91;5031977;28;20076;-66
2023/01/06 02:58:26;;;;;;;5.90;1.67;;;;;;;11.00;74.90;101600.09;5032410;28;20029;-66
2023/01/06 03:01:00;;;;;;;4.22;1.30;;;;;;;11.01;75.15;101606.50;5015728;28;20069;-66
2023/01/06 03:03:29;;;;;;;3.47;1.27;;;;;;;11.03;75.30;101599.59;5013221;28;20036;-66
2023/01/06 03:06:01;;;;;;;3.15;1.40;;;;;;;10.98;74.84;101599.47;5012527;28;20429;-66
2023/01/06 03:08:28;;;;;;;;;;;;;;;11.12;76.16;101593.69;5022288;28;20048;-66
2023/01/06 03:10:55;;;;;;;5.75;1.60;;;;;;;11.02;74.52;101592.34;5032166;28;19971;-66
2023/01/06 03:13:41;;;;;;;3.85;1.52;;;;;;;11.01;75.22;101596.22;5032093;28;20065;-65
2023/01/06 03:16:08;;;;;;;3.53;1.40;;;;;;;10.96;74.41;101593.28;5031109;28;20029;-65
2023/01/06 03:18:34;;;;;;;2.67;1.15;;;;;;;10.99;74.75;101590.03;5032449;28;20026;-65
2023/01/06 03:21:11;;;;;;;4.78;1.48;;;;;;;11.02;74.86;101589.56;5032420;28;20033;-66
2023/01/06 03:23:40;;;;;;;9.02;1.55;;;;;;;11.02;74.43;101580.41;5032408;28;20066;-65
2023/01/06 03:26:06;;;;;;;3.22;1.23;;;;;;;11.00;74.42;101580.66;5030876;28;20120;-65
2023/01/06 03:28:31;;;;;;;3.83;1.52;;;;;;;11.01;74.55;101578.72;5028983;28;20112;-65
2023/01/06 03:31:15;;;;;;;4.05;1.73;;;;;;;11.04;74.97;101587.41;5031797;28;20033;-66
2023/01/06 03:33:49;;;;;;;3.17;1.40;;;;;;;11.03;74.43;101591.25;5025288;28;20313;-66
2023/01/06 03:36:39;;;;;;;4.78;1.33;;;;;;;11.06;74.62;101579.66;5028012;28;20044;-66
2023/01/06 03:39:13;;;;;;;3.38;1.45;;;;;;;11.05;73.75;101578.00;5016514;28;20039;-66
2023/01/06 03:44:41;;;;;;;2.63;1.20;;;;;;;11.03;74.43;101569.03;5025077;28;20548;-66
2023/01/06 03:47:20;;;;;;;5.45;1.40;;;;;;;11.00;74.10;101580.66;5030500;28;20039;-65
2023/01/06 03:49:59;;;;;;;4.82;1.50;;;;;;;10.96;74.47;101584.09;5028183;28;20091;-66
2023/01/06 03:52:33;;;;;;;2.97;1.38;;;;;;;10.99;74.75;101583.63;5027345;28;20049;-65
2023/01/06 03:55:06;;;;;;;3.67;1.30;;;;;;;11.00;74.79;101586.19;5021655;28;20362;-66
2023/01/06 03:57:38;;;;;;;4.45;1.30;;;;;;;11.00;74.80;101572.31;5012723;28;20034;-65
2023/01/06 04:00:09;;;;;;;5.68;1.40;;;;;;;11.04;74.68;101580.97;5024864;28;20201;-65
2023/01/06 04:02:39;;;;;;;5.80;1.70;;;;;;;10.97;74.73;101561.66;5013536;28;20030;-65
2023/01/06 04:05:13;;;;;;;2.35;1.20;;;;;;;11.01;74.50;101567.59;5031108;28;20025;-65
2023/01/06 04:07:40;;;;;;;4.07;1.48;;;;;;;10.98;74.79;101560.56;5026663;28;20109;-65
2023/01/06 04:10:06;;;;;;;2.58;1.35;;;;;;;10.97;74.45;101560.81;5014292;28;20037;-65
2023/01/06 04:12:37;;;;;;;4.30;1.33;;;;;;;10.98;74.67;101554.19;5020483;28;20037;-65
2023/01/06 04:15:07;;;;;;;2.30;1.00;;;;;;;10.98;74.52;101548.63;5029596;28;20583;-65
2023/01/06 04:17:33;;;;;;;3.08;1.45;;;;;;;10.98;74.75;101543.91;5028949;28;20025;-65
2023/01/06 04:19:58;;;;;;;4.63;1.40;;;;;;;10.96;74.26;101540.50;5031531;28;20410;-65
2023/01/06 04:22:24;;;;;;;3.22;1.15;;;;;;;10.96;74.54;101534.13;5029967;28;20041;-66
2023/01/06 04:24:49;;;;;;;2.20;1.10;;;;;;;10.96;74.75;101526.63;5028207;28;20049;-65
2023/01/06 04:27:14;;;;;;;2.55;1.35;;;;;;;10.93;74.69;101527.13;5031923;28;20033;-65
2023/01/06 04:29:40;;;;;;;4.35;1.27;;;;;;;10.99;74.99;101533.63;5029414;28;20021;-65
2023/01/06 04:32:05;;;;;;;4.50;1.00;;;;;;;10.97;74.38;101527.50;5029537;28;20506;-65
2023/01/06 04:34:30;;;;;;;3.70;1.20;;;;;;;10.99;74.39;101516.97;5030951;28;20052;-65
2023/01/06 04:36:55;;;;;;;3.90;1.25;;;;;;;10.99;74.75;101505.88;5029149;28;20032;-65
2023/01/06 04:39:21;;;;;;;3.60;1.30;;;;;;;11.00;74.35;101507.53;5029364;28;20155;-66
2023/01/06 04:41:46;;;;;;;6.13;1.13;;;;;;;10.98;74.33;101502.25;5028722;28;20048;-66
2023/01/06 04:44:11;;;;;;;2.92;1.10;;;;;;;10.98;74.63;101493.91;5014620;28;20030;-65
2023/01/06 04:46:36;;;;;;;3.58;1.10;;;;;;;10.99;74.31;101503.94;5029686;28;20101;-65
2023/01/06 04:49:02;;;;;;;2.05;1.10;;;;;;;10.96;74.05;101484.97;5029360;28;20034;-66
2023/01/06 04:51:27;;;;;;;3.20;1.02;;;;;;;10.94;74.46;101484.38;5027307;28;20041;-65
2023/01/06 04:53:56;;;;;;;6.00;1.48;;;;;;;10.92;74.34;101491.25;5029899;28;20468;-65
2023/01/06 04:56:21;;;;;;;3.28;0.80;;;;;;;10.94;74.50;101497.41;5030690;28;20061;-66
2023/01/06 04:58:46;;;;;;;2.35;1.00;;;;;;;10.93;74.43;101492.94;5027694;28;20020;-65
2023/01/06 05:01:12;;;;;;;2.20;0.75;;;;;;;10.92;74.36;101500.41;5030959;28;20112;-66
2023/01/06 05:03:39;;;;;;;2.25;1.10;;;;;;;10.95;74.47;101499.94;5029128;28;20025;-65
2023/01/06 05:06:10;;;;;;;2.95;1.05;;;;;;;10.93;74.58;101493.78;5027589;28;20037;-66
2023/01/06 05:08:40;;;;;;;1.80;1.13;;;;;;;10.93;74.93;101491.00;5023515;28;20385;-65
2023/01/06 05:11:20;;;;;;;1.80;1.00;;;;;;;10.95;74.67;101474.94;5029379;28;20064;-65
2023/01/06 05:13:46;;;;;;;3.55;1.10;;;;;;;10.91;74.48;101473.72;5031179;28;20037;-66
2023/01/06 05:16:16;;;;;;;2.60;1.20;;;;;;;10.93;74.45;101471.56;5033255;28;20447;-65
2023/01/06 05:18:41;;;;;;;2.40;1.08;;;;;;;10.91;74.42;101468.19;5034689;28;20069;-66
2023/01/06 05:21:10;;;;;;;2.10;1.05;;;;;;;10.90;74.65;101480.38;5034735;28;20068;-66
2023/01/06 05:23:36;;;;;;;2.42;1.05;;;;;;;10.91;74.96;101470.94;5034662;28;20056;-66
2023/01/06 05:26:08;;;;;;;2.97;1.15;;;;;;;10.94;74.91;101481.59;5032515;28;20049;-66
2023/01/06 05:28:33;;;;;;;2.25;1.10;;;;;;;10.97;74.64;101489.44;5032049;28;20022;-66
2023/01/06 05:31:03;;;;;;;2.05;1.02;;;;;;;10.96;75.00;101482.19;5034053;28;20073;-65
2023/01/06 05:33:31;;;;;;;2.58;0.90;;;;;;;10.97;74.84;101478.34;5033121;28;20026;-65
2023/01/06 05:35:58;;;;;;;2.25;1.10;;;;;;;10.93;74.48;101488.25;5034704;28;20029;-66
2023/01/06 05:38:23;;;;;;;3.50;1.10;;;;;;;10.95;74.93;101494.38;5033587;28;20046;-66
2023/01/06 05:40:52;;;;;;;2.58;1.13;;;;;;;10.98;74.92;101482.81;5035054;28;20022;-65
2023/01/06 05:43:21;;;;;;;2.28;0.98;;;;;;;10.91;74.49;101482.06;5032655;28;20068;-65
2023/01/06 05:45:46;;;;;;;2.35;1.00;;;;;;;10.95;74.60;101490.75;5032587;28;20044;-65
2023/01/06 05:48:12;;;;;;;2.72;1.08;;;;;;;10.94;74.52;101498.25;5034529;28;20029;-65
2023/01/06 05:50:37;;;;;;;3.42;1.15;;;;;;;10.99;74.83;101503.09;5034355;28;20049;-65
2023/01/06 05:53:02;;;;;;;1.90;1.00;;;;;;;10.99;74.58;101497.53;5033181;28;20151;-66
2023/01/06 05:55:27;;;;;;;2.50;1.00;;;;;;;10.98;74.59;101485.56;5034647;28;20032;-66
2023/01/06 05:57:53;;;;;;;2.72;1.10;;;;;;;10.94;74.63;101486.31;5034113;28;20101;-65
2023/01/06 06:00:18;;;;;;;1.92;1.00;;;;;;;10.94;74.02;101495.47;5030772;28;20026;-65
2023/01/06 06:02:43;;;;;;;2.67;0.95;;;;;;;10.95;74.67;101488.81;5030811;28;20029;-65
2023/01/06 06:05:09;;;;;;;1.63;0.95;;;;;;;10.96;74.94;101492.44;5018355;28;20474;-65
2023/01/06 06:07:35;;;;;;;1.60;1.25;;;;;;;10.94;75.02;101497.41;5020082;28;20104;-65
2023/01/06 06:10:00;;;;;;;2.03;1.10;;;;;;;10.92;74.94;101489.31;5033736;28;20033;-65
2023/01/06 06:12:26;;;;;;;2.55;0.90;;;;;;;10.91;74.97;101487.63;5031058;28;20029;-65
2023/01/06 06:14:51;;;;;;;2.45;1.20;;;;;;;10.91;75.13;101493.16;5021685;28;20081;-65
2023/01/06 06:17:16;;;;;;;1.77;1.20;;;;;;;10.96;75.18;101498.00;5024837;28;20397;-65
2023/01/06 06:19:42;;;;;;;3.13;1.25;;;;;;;10.98;74.97;101487.50;5032969;28;20468;-65
2023/01/06 06:22:07;;;;;;;1.50;0.80;;;;;;;10.99;75.16;101490.03;5024987;28;20033;-65
2023/01/06 06:24:32;;;;;;;2.85;1.30;;;;;;;11.00;74.83;101486.19;5026726;28;20071;-65
2023/01/06 06:26:57;;;;;;;1.98;1.17;;;;;;;10.97;75.02;101495.00;5018411;28;20050;-65
2023/01/06 06:29:23;;;;;;;2.38;1.20;;;;;;;10.95;75.00;101499.94;5019614;28;20048;-65
2023/01/06 06:31:48;;;;;;;1.85;0.93;;;;;;;10.96;75.46;101489.66;5024329;28;20080;-65
2023/01/06 06:34:13;;;;;;;1.83;1.20;;;;;;;10.98;74.92;101496.69;5021184;28;20038;-65
2023/01/06 06:36:39;;;;;;;1.33;0.98;;;;;;;11.00;75.25;101485.31;5023800;28;20898;-65
2023/01/06 06:39:04;;;;;;;4.78;1.30;;;;;;;10.97;74.97;101486.66;5025546;28;20060;-65
2023/01/06 06:41:29;;;;;;;2.35;1.10;;;;;;;10.97;75.24;101475.56;5019271;28;20115;-66
2023/01/06 06:43:55;;;;;;;3.42;1.23;;;;;;;10.97;75.52;101492.22;5024913;28;20064;-67
2023/01/06 06:46:21;;;;;;;2.45;1.27;;;;;;;10.99;75.46;101490.03;5028887;28;20031;-66
2023/01/06 06:48:48;;;;;;;2.38;1.17;;;;;;;10.94;75.83;101489.91;5019368;28;20021;-65
2023/01/06 06:51:18;;;;;;;2.00;1.40;;;;;;;10.93;76.22;101492.94;5024348;28;20055;-66
2023/01/06 06:53:44;;;;;;;4.22;1.23;;;;;;;10.94;76.17;101494.63;5012540;28;20034;-65
2023/01/06 06:56:10;;;;;;;3.55;1.40;;;;;;;10.94;76.43;101492.69;5025725;28;20120;-67
2023/01/06 06:58:37;;;;;;;2.58;1.15;;;;;;;10.96;76.76;101492.44;5012244;28;20033;-66
2023/01/06 07:01:11;;;;;;;2.75;1.60;;;;;;;10.95;76.95;101502.72;5017311;28;20033;-66
2023/01/06 07:03:37;;;;;;;2.50;1.17;;;;;;;10.97;77.25;101495.00;5027105;28;20385;-65
2023/01/06 07:06:05;;;;;;;5.53;1.50;;;;;;;10.96;77.05;101507.19;5021155;28;20486;-68
2023/01/06 07:08:33;;;;;;;2.30;1.30;;;;;;;10.97;77.31;101511.66;5018134;28;20061;-66
2023/01/06 07:10:59;;;;;;;2.88;1.50;;;;;;;10.92;77.56;101508.75;5029917;28;20100;-67
2023/01/06 07:13:25;;;;;;;1.33;1.20;;;;;;;10.93;77.81;101513.25;5029986;28;20366;-67
2023/01/06 07:15:50;;;;;;;1.88;1.40;;;;;;;10.88;78.25;101524.19;5023592;28;20038;-66
2023/01/06 07:18:16;;;;;;;3.38;1.50;;;;;;;10.90;78.30;101510.94;5020935;28;20067;-67
2023/01/06 07:20:46;;;;;;;2.92;1.45;;;;;;;10.88;78.89;101515.88;5017208;28;20132;-67
2023/01/06 07:23:11;;;;;;;2.90;1.50;;;;;;;10.91;78.92;101511.78;5027395;28;20041;-67
2023/01/06 07:25:36;;;;;;;5.43;1.58;;;;;;;10.89;78.60;101512.03;5028368;28;20025;-65
2023/01/06 07:28:05;;;;;;;1.70;1.42;;;;;;;10.90;78.76;101513.72;5027965;28;20448;-67
2023/01/06 07:30:32;;;;;;;3.67;1.70;;;;;;;10.90;78.88;101522.03;5013798;28;20030;-67
2023/01/06 07:33:01;;;;;;;2.17;1.52;;;;;;;10.91;79.16;101504.28;5027375;28;20022;-65
2023/01/06 07:35:27;;;;;;;2.40;1.60;;;;;;;10.94;79.48;101503.81;5019962;28;20037;-67
2023/01/06 07:37:52;;;;;;;2.38;1.30;;;;;;;10.96;79.17;101503.56;5014050;28;20468;-67
2023/01/06 07:40:18;;;;;;;4.85;1.67;;;;;;;10.95;79.05;101511.03;5019024;28;20029;-67
2023/01/06 07:42:43;;;;;;;4.15;1.90;;;;;;;10.91;79.47;101515.38;5018800;28;20103;-67
2023/01/06 07:45:09;;;;;;;2.72;1.50;;;;;;;10.90;79.66;101516.47;5025486;28;20026;-68
2023/01/06 07:47:35;;;;;;;1.92;1.48;;;;;;;10.91;79.64;101517.31;5020709;28;20021;-68
2023/01/06 07:50:00;;;;;;;4.13;1.70;;;;;;;10.92;79.74;101530.97;5025629;28;20389;-68
2023/01/06 07:52:26;;;;;;;4.85;2.13;;;;;;;10.92;79.58;101528.19;5015608;28;20485;-68
2023/01/06 07:54:51;;;;;;;4.70;1.25;;;;;;;10.94;79.17;101533.53;5023806;28;20041;-63
2023/01/06 07:57:16;;;;;;;4.90;1.42;;;;;;;10.89;79.33;101550.06;5025160;28;20025;-67
2023/01/06 07:59:41;;;;;;;1.60;1.30;;;;;;;10.87;79.60;101550.28;5016028;28;20372;-66
2023/01/06 08:02:12;;;;;;;2.78;1.48;;;;;;;10.89;79.33;101548.13;5021076;28;20084;-67
2023/01/06 08:04:37;;;;;;;3.20;1.60;;;;;;;10.91;79.30;101547.88;5024097;28;20355;-67
2023/01/06 08:07:02;;;;;;;1.73;1.50;;;;;;;10.93;79.21;101551.28;5026395;28;20396;-66
2023/01/06 08:09:28;;;;;;;3.75;1.60;;;;;;;10.93;79.43;101543.78;5029767;28;20725;-66
2023/01/06 08:11:53;;;;;;;2.42;1.80;;;;;;;10.89;79.83;101545.34;5026906;28;20045;-66
2023/01/06 08:14:18;;;;;;;2.22;1.40;;;;;;;10.92;79.66;101557.91;5027550;28;20033;-67
2023/01/06 08:16:44;;;;;;;2.40;1.75;;;;;;;10.93;79.50;101562.38;5024477;28;20088;-66
2023/01/06 08:19:09;;;;;;;2.72;1.48;;;;;;;10.93;79.67;101566.00;5028608;28;20113;-69
2023/01/06 08:21:35;;;;;;;2.00;1.55;;;;;;;10.93;79.67;101566.00;5024111;28;20029;-64
2023/01/06 08:24:00;;;;;;;1.83;1.60;;;;;;;10.94;79.98;101572.41;5030159;28;20041;-68
2023/01/06 08:26:25;;;;;;;2.55;1.90;;;;;;;10.96;79.95;101584.94;5026523;28;20029;-68
2023/01/06 08:28:52;;;;;;;4.35;1.98;;;;;;;10.99;79.89;101580.88;5027781;28;20366;-68
2023/01/06 08:31:19;;;;;;;3.05;1.60;;;;;;;11.00;79.96;101586.19;5026284;28;20053;-71
2023/01/06 08:33:44;;;;;;;3.38;1.80;;;;;;;11.00;80.04;101580.66;5017645;28;20025;-69
2023/01/06 08:36:15;;;;;;;1.70;1.60;;;;;;;11.00;79.87;101580.66;5022036;28;20033;-69
2023/01/06 08:38:40;;;;;;;1.50;1.40;;;;;;;10.98;80.49;101585.56;5024581;28;20025;-71
2023/01/06 08:41:07;;;;;;;2.50;1.85;;;;;;;11.00;80.20;101590.88;5023553;28;20048;-73
2023/01/06 08:43:32;;;;;;;1.85;1.70;;;;;;;11.00;80.17;101602.00;5021313;28;20041;-74
2023/01/06 08:46:00;;;;;;;2.75;1.63;;;;;;;11.01;80.18;101609.25;5017274;28;20044;-74
2023/01/06 08:48:26;;;;;;;1.90;1.70;;;;;;;11.02;80.05;101605.41;5025609;28;20385;-72
2023/01/06 08:50:51;;;;;;;2.28;1.90;;;;;;;11.05;80.23;101610.47;5022768;28;20064;-70
2023/01/06 08:53:17;;;;;;;9.02;1.65;;;;;;;11.35;82.86;101618.72;5023405;28;20475;-74
2023/01/06 08:55:42;;;;;;;3.22;2.20;;;;;;;11.19;79.73;101625.00;5026285;28;20030;-66
2023/01/06 08:58:08;;;;;;;3.45;2.38;;;;;;;11.21;79.51;101623.69;5023680;28;20052;-70
2023/01/06 09:00:36;;;;;;;2.30;2.20;;;;;;;11.17;79.64;101636.34;5024396;28;20362;-72
2023/01/06 09:03:01;;;;;;;2.58;2.38;;;;;;;11.13;79.54;101615.69;5009410;28;20555;-72
2023/01/06 09:05:28;;;;;;;3.17;2.97;;;;;;;11.17;79.48;101629.97;5026202;28;20756;-71
2023/01/06 09:07:53;;;;;;;3.22;2.45;;;;;;;11.11;79.69;101631.75;5030987;28;20104;-71
2023/01/06 09:10:19;;;;;;;2.72;2.50;;;;;;;11.15;79.46;101634.88;5028059;28;20033;-71
2023/01/06 09:12:45;;;;;;;3.50;3.00;;;;;;;11.16;79.69;101637.44;5030579;28;20061;-71
2023/01/06 09:15:11;;;;;;;3.25;2.70;;;;;;;11.16;79.54;101647.69;5029581;28;20132;-72
2023/01/06 09:17:36;;;;;;;4.35;3.53;;;;;;;11.16;79.66;101636.56;5029109;28;20519;-71
2023/01/06 09:20:03;;;;;;;4.30;3.95;;;;;;;11.14;79.52;101644.31;5029295;28;20045;-71
2023/01/06 09:22:28;;;;;;;5.25;3.88;;;;;;;11.17;79.62;101646.63;5027514;28;20448;-71
2023/01/06 09:24:54;;;;;;;3.83;3.45;;;;;;;11.17;79.28;101650.25;5029217;28;20068;-71
2023/01/06 09:27:19;;;;;;;4.40;4.05;;;;;;;11.16;79.31;101658.81;5030478;28;20380;-72
2023/01/06 09:29:44;;;;;;;7.70;4.38;;;;;;;11.14;79.15;101659.06;5030854;28;20029;-72
2023/01/06 09:32:10;;;;;;;4.28;3.88;;;;;;;11.16;79.29;101665.25;5029311;28;20030;-72
2023/01/06 09:34:35;;;;;;;4.70;4.30;;;;;;;11.16;79.25;101668.00;5030878;28;20045;-72
2023/01/06 09:37:00;;;;;;;5.65;3.85;;;;;;;11.18;78.97;101678.88;5030250;28;20042;-71
2023/01/06 09:39:26;;;;;;;7.28;3.92;;;;;;;11.19;78.86;101675.00;5025989;28;20049;-69
2023/01/06 09:42:20;;;;;;;4.40;3.80;;;;;;;11.22;79.10;101677.31;5029495;28;20034;-69
2023/01/06 09:45:17;;;;;;;4.63;3.80;;;;;;;11.23;78.62;101679.84;5029637;28;20389;-71
2023/01/06 09:47:50;;;;;;;4.63;3.75;;;;;;;11.23;78.74;101673.44;5029045;28;20080;-72
2023/01/06 09:50:39;;;;;;;5.75;3.67;;;;;;;11.24;78.58;101678.78;5030065;28;20469;-71
2023/01/06 09:53:27;;;;;;;5.68;3.65;;;;;;;11.25;78.70;101683.25;5028030;28;20434;-72
2023/01/06 09:55:56;;;;;;;5.80;4.05;;;;;;;11.25;78.51;101693.53;5028278;28;20120;-71
2023/01/06 09:58:50;;;;;;;5.18;4.00;;;;;;;11.30;78.86;101693.66;5029338;28;20081;-72
2023/01/06 10:01:21;;;;;;;6.03;4.22;;;;;;;11.28;78.77;101698.63;5026640;28;20163;-70
2023/01/06 10:03:46;;;;;;;5.30;4.22;;;;;;;11.27;78.35;101703.31;5025434;28;20136;-67
2023/01/06 10:06:45;;;;;;;6.63;4.70;;;;;;;11.34;78.66;101708.78;5027943;28;20545;-72
2023/01/06 10:09:34;;;;;;;4.88;4.38;;;;;;;11.37;78.32;101705.53;5030143;28;20083;-73
2023/01/06 10:12:27;;;;;;;5.53;4.43;;;;;;;11.35;78.27;101701.28;5028400;28;20827;-74
2023/01/06 10:15:23;;;;;;;6.85;4.20;;;;;;;11.37;77.86;101701.91;5031805;28;20075;-75
2023/01/06 10:18:01;;;;;;;5.22;4.75;;;;;;;11.34;77.56;101699.59;5020088;28;20130;-72
2023/01/06 10:20:59;;;;;;;5.35;4.80;;;;;;;11.34;78.26;101692.09;5019642;28;20026;-73
2023/01/06 10:23:50;;;;;;;6.80;4.18;;;;;;;11.33;77.87;101695.97;5031529;28;20043;-73
2023/01/06 10:26:26;;;;;;;5.03;3.80;;;;;;;11.30;77.28;101702.00;5033671;28;20035;-71
2023/01/06 10:28:56;;;;;;;6.90;4.03;;;;;;;11.27;77.40;101691.34;5031777;28;20041;-69
2023/01/06 10:31:26;;;;;;;8.00;4.38;;;;;;;11.25;76.88;101699.94;5030686;28;20031;-70
2023/01/06 10:33:54;;;;;;;7.40;4.38;;;;;;;11.26;77.25;101707.16;5028682;28;20040;-71
2023/01/06 10:36:29;;;;;;;9.55;4.03;;;;;;;11.26;77.05;101700.78;5026779;28;20100;-72
2023/01/06 10:38:56;;;;;;;5.05;3.80;;;;;;;11.32;76.79;101699.84;5028316;28;20021;-72
2023/01/06 10:42:54;;;;;;;5.10;3.42;;;;;;;11.40;76.98;101693.94;5031378;28;20104;-72
2023/01/06 10:44:48;;;;;;;9.88;4.25;;;;;;;11.45;76.64;101705.19;5029462;28;20621;-71
2023/01/06 10:47:36;;;;;;;6.35;4.00;;;;;;;11.51;77.27;101697.81;5027314;28;20496;-72
2023/01/06 10:50:01;;;;;;;7.70;4.32;;;;;;;11.54;76.22;101702.88;5023535;28;20045;-73
2023/01/06 10:52:27;;;;;;;8.13;5.22;;;;;;;11.55;76.27;101699.88;5029416;28;20050;-77
2023/01/06 10:54:57;;;;;;;7.72;5.18;;;;;;;11.57;76.55;101702.41;5023740;28;20690;-71
2023/01/06 10:57:28;;;;;;;6.15;5.55;;;;;;;11.58;76.50;101695.75;5024926;28;20033;-72
2023/01/06 11:00:11;;;;;;;9.45;5.68;;;;;;;11.59;76.54;101700.22;5027932;28;20025;-69
2023/01/06 11:02:45;;;;;;;9.27;6.75;;;;;;;11.56;75.69;101700.72;5028964;28;20025;-68
2023/01/06 11:05:25;;;;;;;8.80;5.97;;;;;;;11.56;76.00;101700.72;5029463;28;20481;-70
2023/01/06 11:07:57;;;;;;;8.98;7.10;;;;;;;11.54;75.83;101711.22;5025884;28;20057;-71
2023/01/06 11:10:26;;;;;;;9.90;7.60;;;;;;;11.52;75.35;101705.09;5020436;28;20060;-74
2023/01/06 11:12:53;;;;;;;8.73;7.70;;;;;;;11.50;75.50;101707.25;5028458;28;20033;-79
2023/01/06 11:15:21;;;;;;;9.55;8.40;;;;;;;11.45;75.11;101705.19;5022165;28;20492;-79
2023/01/06 11:17:47;;;;;;;10.05;7.97;;;;;;;11.47;75.16;101699.38;5027902;28;20021;-73
2023/01/06 11:20:12;;;;;;;9.52;7.88;;;;;;;11.48;74.68;101693.59;5029544;28;20439;-73
2023/01/06 11:22:40;;;;;;;10.02;8.73;;;;;;;11.49;74.68;101689.72;5025959;28;20033;-74
2023/01/06 11:25:21;;;;;;;9.90;8.80;;;;;;;11.52;75.11;101694.81;5023909;28;20087;-78
2023/01/06 11:28:07;;;;;;;10.85;8.80;;;;;;;11.49;73.89;101703.63;5020494;28;20033;-75
2023/01/06 11:30:39;;;;;;;10.13;9.15;;;;;;;11.47;74.39;101697.44;5031162;28;20046;-70
2023/01/06 11:33:12;;;;;;;7.90;7.20;;;;;;;11.47;73.41;101700.22;5018899;28;20025;-76
2023/01/06 11:35:38;;;;;;;7.13;6.40;;;;;;;11.48;73.00;101690.81;5020531;28;20083;-72
2023/01/06 11:38:03;;;;;;;7.40;5.70;;;;;;;11.49;72.55;101697.22;5024780;28;20095;-74
2023/01/06 11:40:33;;;;;;;6.65;4.80;;;;;;;11.44;71.31;101695.16;5028537;28;20037;-70
2023/01/06 11:43:05;;;;;;;4.97;4.38;;;;;;;11.41;71.12;101698.41;5022315;28;20025;-68